Horatio, South Carolina
Current Conditions -  °F | °C
As of 5:58 AM on Thursday 23 Oct 2014 (Local Time) from KSSC Reporting Station
Clear Clear  
Wind Chill: 41°   Ceiling: Unl
Heat Index: 45°   Visibility: 10mi
Dew Point: 41°   Wind: 8mph
Humidity: 87%   Direction: 300°WNW
Pressure: 30.06"   Gusts: NA
Location:  34.02°N, 80.57°W
Report Text: KSSC 230958Z AUTO 30007KT 10SM CLR 07/05 A3006 RMK AO2 SLP181 T00730052 $
Loading
Personal Weather Stations






























Interactive Weather Map New forecast layout! Learn more

10-Day Weather Forecast

Advertisements
Track Severe Weather on mobile